North Sanford, New York
Current Conditions -  °F | °C
As of 3:53 PM on Saturday 22 Nov 2014 (Local Time) from KBGM Reporting Station
Overcast Overcast  
Wind Chill: 28°   Ceiling: 2000
Heat Index: 37°   Visibility: 10mi
Dew Point: 23°   Wind: 15mph
Humidity: 57%   Direction: 220°SW
Pressure: 30.08"   Gusts: 29mph
Location:  42.0783°N, 75.4419°W
Report Text: KBGM 222053Z 22013G25KT 10SM OVC020 03/M05 A3008 RMK AO2 RAB1959E21 SLP205 P0000 60000 T00281050 56017
Loading
Personal Weather Stations






























Interactive Weather Map New forecast layout! Learn more

10-Day Weather Forecast

Advertisements
Track Severe Weather on mobile